Time;durP1;ratioP1;P1;durP2;ratioP2;P2;SDS_P1;SDS_P2;PMS_P1;PMS_P2;Temp;Humidity;BMP_temperature;BMP_pressure;BME280_temperature;BME280_humidity;BME280_pressure;Samples;Min_cycle;Max_cycle;Signal;HPM_P1;HPM_P2
2021/10/05 05:12:24;;;;;;;;;;;13.20;99.90;;;;;;5777077;23;19924;-80
2021/10/05 05:15:16;;;;;;;;;;;13.20;99.90;;;;;;5300902;23;19927;-76
2021/10/05 05:18:04;;;;;;;;;;;13.20;99.90;;;;;;4942873;29;19946;-79
2021/10/05 05:20:54;;;;;;;;;;;13.20;99.90;;;;;;4951031;29;20389;-78
2021/10/05 05:23:43;;;;;;;;;;;13.20;99.90;;;;;;4934963;29;19926;-76
2021/10/05 05:27:06;;;;;;;;;;;13.30;99.90;;;;;;4947972;29;19950;-79
2021/10/05 05:29:59;;;;;;;;;;;13.20;99.90;;;;;;4945535;29;19927;-79
2021/10/05 05:32:49;;;;;;;;;;;13.20;99.90;;;;;;4957369;29;20291;-81
2021/10/05 05:35:38;;;;;;;;;;;13.20;99.90;;;;;;4955298;28;20321;-76
2021/10/05 05:38:27;;;;;;;;;;;13.20;99.90;;;;;;4942140;29;19930;-76
2021/10/05 05:41:16;;;;;;;;;;;13.20;99.90;;;;;;4942878;28;19938;-77
2021/10/05 05:44:05;;;;;;;;;;;13.20;99.90;;;;;;4943744;29;19927;-79
2021/10/05 05:47:21;;;;;;;;;;;13.20;99.90;;;;;;4943826;28;20010;-78
2021/10/05 05:50:10;;;;;;;;;;;13.20;99.90;;;;;;4938065;28;19931;-75
2021/10/05 05:52:59;;;;;;;;;;;13.20;99.90;;;;;;4940146;29;19991;-77
2021/10/05 05:55:48;;;;;;;;;;;13.20;99.90;;;;;;4945542;28;19930;-78
2021/10/05 05:58:37;;;;;;;;;;;13.20;99.90;;;;;;4927873;29;20360;-76
2021/10/05 06:01:26;;;;;;;;;;;13.20;99.90;;;;;;4932709;29;19958;-77
2021/10/05 06:04:17;;;;;;;;;;;13.20;99.90;;;;;;4942467;29;19981;-76
2021/10/05 06:07:06;;;;;;;;;;;13.20;99.90;;;;;;4936514;28;20108;-73
2021/10/05 06:09:55;;;;;;;;;;;13.20;99.90;;;;;;4927168;28;19928;-74
2021/10/05 06:12:45;;;;;;;;;;;13.20;99.90;;;;;;4932478;28;19927;-76
2021/10/05 06:15:34;;;;;;;;;;;13.10;99.90;;;;;;4934426;29;20058;-77
2021/10/05 06:18:26;;;;;;;;;;;13.10;99.90;;;;;;4942140;28;19930;-76
2021/10/05 06:21:17;;;;;;;;;;;13.10;99.90;;;;;;4935843;29;19934;-76
2021/10/05 06:24:05;;;;;;;;;;;13.10;99.90;;;;;;4937421;29;19937;-76
2021/10/05 06:26:54;;;;;;;;;;;13.10;99.90;;;;;;4929598;29;20018;-76
2021/10/05 06:29:43;;;;;;;;;;;13.10;99.90;;;;;;4931985;29;20338;-76
2021/10/05 06:32:32;;;;;;;;;;;13.10;99.90;;;;;;4928874;29;19934;-78
2021/10/05 06:35:21;;;;;;;;;;;13.10;99.90;;;;;;4931603;29;19927;-75
2021/10/05 06:38:13;;;;;;;;;;;13.10;99.90;;;;;;4928429;28;19938;-76
2021/10/05 06:41:08;;;;;;;;;;;13.10;99.90;;;;;;4934004;29;20022;-77
2021/10/05 06:44:00;;;;;;;;;;;13.10;99.90;;;;;;4937259;29;19927;-76
2021/10/05 06:46:49;;;;;;;;;;;13.10;99.90;;;;;;4936524;28;19931;-77
2021/10/05 06:49:38;;;;;;;;;;;13.10;99.90;;;;;;4936759;29;19927;-76
2021/10/05 06:52:28;;;;;;;;;;;13.10;99.90;;;;;;4937833;29;19926;-76
2021/10/05 06:55:18;;;;;;;;;;;13.00;99.90;;;;;;4937688;28;19939;-76
2021/10/05 06:58:07;;;;;;;;;;;13.00;99.90;;;;;;4936619;28;20026;-75
2021/10/05 07:01:21;;;;;;;;;;;13.00;99.90;;;;;;4930796;28;19978;-76
2021/10/05 07:04:14;;;;;;;;;;;13.00;99.90;;;;;;4935533;29;20327;-75
2021/10/05 07:07:03;;;;;;;;;;;13.10;99.90;;;;;;4937908;28;19935;-75
2021/10/05 07:09:52;;;;;;;;;;;13.00;99.90;;;;;;4929649;29;19938;-76
2021/10/05 07:12:43;;;;;;;;;;;13.00;99.90;;;;;;4936247;29;20090;-75
2021/10/05 07:15:32;;;;;;;;;;;13.10;99.90;;;;;;4929711;29;19926;-76
2021/10/05 07:18:20;;;;;;;;;;;13.00;99.90;;;;;;4933945;28;19985;-76
2021/10/05 07:21:33;;;;;;;;;;;13.10;99.90;;;;;;4937126;28;19973;-76
2021/10/05 07:24:22;;;;;;;;;;;13.10;99.90;;;;;;4941028;28;20006;-75
2021/10/05 07:27:10;;;;;;;;;;;13.10;99.90;;;;;;4941016;29;20370;-74
2021/10/05 07:30:03;;;;;;;;;;;13.10;99.90;;;;;;4942362;28;19938;-74
2021/10/05 07:32:52;;;;;;;;;;;13.10;99.90;;;;;;4941999;28;19938;-75
2021/10/05 07:35:41;;;;;;;;;;;13.10;99.90;;;;;;4941606;28;19948;-74
2021/10/05 07:41:43;;;;;;;;;;;13.10;99.90;;;;;;4938336;29;19927;-75
2021/10/05 07:44:33;;;;;;;;;;;13.10;99.90;;;;;;4941641;29;19934;-75
2021/10/05 07:47:26;;;;;;;;;;;13.10;99.90;;;;;;4942023;28;20336;-72
2021/10/05 07:50:15;;;;;;;;;;;13.10;99.90;;;;;;4945097;29;20302;-74
2021/10/05 07:53:04;;;;;;;;;;;13.10;99.90;;;;;;4940128;28;20003;-73
2021/10/05 07:55:53;;;;;;;;;;;13.10;99.90;;;;;;4941169;28;19962;-74
2021/10/05 07:58:42;;;;;;;;;;;13.10;99.90;;;;;;4944103;29;20267;-75
2021/10/05 08:01:32;;;;;;;;;;;13.20;99.90;;;;;;4933727;28;19927;-75
2021/10/05 08:04:23;;;;;;;;;;;13.10;99.90;;;;;;4939837;29;20331;-74
2021/10/05 08:07:13;;;;;;;;;;;13.10;99.90;;;;;;4929670;28;19931;-75
2021/10/05 08:10:02;;;;;;;;;;;13.10;99.90;;;;;;4936086;29;20352;-74
2021/10/05 08:12:52;;;;;;;;;;;13.10;99.90;;;;;;4937906;28;19934;-75
2021/10/05 08:15:42;;;;;;;;;;;13.10;99.90;;;;;;4939254;28;19926;-75
2021/10/05 08:18:31;;;;;;;;;;;13.10;99.90;;;;;;4943162;28;19958;-75
2021/10/05 08:21:21;;;;;;;;;;;13.10;99.90;;;;;;4936953;29;20398;-75
2021/10/05 08:24:09;;;;;;;;;;;13.10;99.90;;;;;;4941526;28;19941;-75
2021/10/05 08:26:58;;;;;;;;;;;13.10;99.90;;;;;;4936658;29;19927;-76
2021/10/05 08:30:12;;;;;;;;;;;13.10;99.90;;;;;;4922915;28;19927;-75
2021/10/05 08:33:00;;;;;;;;;;;13.20;99.90;;;;;;4937481;29;20279;-74
2021/10/05 08:35:50;;;;;;;;;;;13.20;99.90;;;;;;4935722;29;19990;-74
2021/10/05 08:38:41;;;;;;;;;;;13.30;99.90;;;;;;4937671;28;19991;-77
2021/10/05 08:41:30;;;;;;;;;;;13.20;99.90;;;;;;4940303;29;20025;-74
2021/10/05 08:44:22;;;;;;;;;;;13.30;99.90;;;;;;4937983;29;21525;-73
2021/10/05 08:47:11;;;;;;;;;;;13.30;99.90;;;;;;4937564;28;19934;-74
2021/10/05 08:50:00;;;;;;;;;;;13.30;99.90;;;;;;4940605;28;20427;-75
2021/10/05 08:52:50;;;;;;;;;;;13.20;99.90;;;;;;4924954;29;19962;-74
2021/10/05 08:55:40;;;;;;;;;;;13.20;99.90;;;;;;4943637;28;20443;-74
2021/10/05 08:58:29;;;;;;;;;;;13.20;99.90;;;;;;4946966;28;19971;-74
2021/10/05 09:01:19;;;;;;;;;;;13.30;99.90;;;;;;4933966;28;19931;-74
2021/10/05 09:07:21;;;;;;;;;;;13.30;99.90;;;;;;4934410;29;20395;-74
2021/10/05 09:10:11;;;;;;;;;;;13.40;99.90;;;;;;4934703;28;20013;-74
2021/10/05 09:13:01;;;;;;;;;;;13.40;99.90;;;;;;4928999;29;19927;-74
2021/10/05 09:15:50;;;;;;;;;;;13.40;99.90;;;;;;4925438;29;19933;-74
2021/10/05 09:18:50;;;;;;;;;;;13.40;99.90;;;;;;4939499;28;20414;-74
2021/10/05 09:21:40;;;;;;;;;;;13.40;99.90;;;;;;4936191;28;19934;-74
2021/10/05 09:24:32;;;;;;;;;;;13.40;99.90;;;;;;4938773;28;19927;-75
2021/10/05 09:27:29;;;;;;;;;;;13.50;99.90;;;;;;4943541;28;19927;-73
2021/10/05 09:30:20;;;;;;;;;;;13.50;99.90;;;;;;4930151;29;19927;-73
2021/10/05 09:33:09;;;;;;;;;;;13.50;99.90;;;;;;4930114;29;19927;-74
2021/10/05 09:36:02;;;;;;;;;;;13.60;99.90;;;;;;4932798;28;19927;-74
2021/10/05 09:39:00;;;;;;;;;;;13.60;99.90;;;;;;4935763;28;20252;-75
2021/10/05 09:41:55;;;;;;;;;;;13.60;99.90;;;;;;4931950;29;19950;-74
2021/10/05 09:44:44;;;;;;;;;;;13.60;99.90;;;;;;4928886;29;19941;-75
2021/10/05 09:47:38;;;;;;;;;;;13.50;99.90;;;;;;4933256;29;19931;-76
2021/10/05 09:50:28;;;;;;;;;;;13.50;99.90;;;;;;4922907;29;19927;-76
2021/10/05 09:53:19;;;;;;;;;;;13.60;99.90;;;;;;4929804;29;20057;-77
2021/10/05 09:56:12;;;;;;;;;;;13.60;99.90;;;;;;4929445;29;19926;-77
2021/10/05 09:59:03;;;;;;;;;;;13.60;99.90;;;;;;4927377;29;19986;-76
2021/10/05 10:01:52;;;;;;;;;;;13.70;99.90;;;;;;4918679;29;19942;-76
2021/10/05 10:04:45;;;;;;;;;;;13.70;99.90;;;;;;4924527;29;20455;-76
2021/10/05 10:07:37;;;;;;;;;;;13.70;99.90;;;;;;4923293;29;20486;-76
2021/10/05 10:10:27;;;;;;;;;;;13.70;99.90;;;;;;4922116;29;19927;-75
2021/10/05 10:16:37;;;;;;;;;;;13.70;99.90;;;;;;4926266;28;19930;-75
2021/10/05 10:19:29;;;;;;;;;;;13.70;99.90;;;;;;4926784;28;20062;-74
2021/10/05 10:22:19;;;;;;;;;;;13.70;99.90;;;;;;4919348;29;19934;-76
2021/10/05 10:25:19;;;;;;;;;;;13.70;99.90;;;;;;4924586;29;19926;-75
2021/10/05 10:28:12;;;;;;;;;;;13.70;99.90;;;;;;4923158;28;19934;-75
2021/10/05 10:31:01;;;;;;;;;;;13.70;99.90;;;;;;4921303;29;20046;-75
2021/10/05 10:33:50;;;;;;;;;;;13.70;99.90;;;;;;4928590;28;19927;-74
2021/10/05 10:36:41;;;;;;;;;;;13.70;99.90;;;;;;4924695;29;20383;-76
2021/10/05 10:39:36;;;;;;;;;;;13.70;99.90;;;;;;4930093;28;19927;-76
2021/10/05 10:42:27;;;;;;;;;;;13.70;99.90;;;;;;4926500;29;20299;-76
2021/10/05 10:45:16;;;;;;;;;;;13.70;99.90;;;;;;5231903;23;20384;-76
2021/10/05 10:48:06;;;;;;;;;;;13.70;99.90;;;;;;4929874;29;20307;-76
2021/10/05 10:50:55;;;;;;;;;;;13.80;99.90;;;;;;4921687;29;19935;-76
2021/10/05 10:53:45;;;;;;;;;;;13.80;99.90;;;;;;4924950;29;19938;-76
2021/10/05 10:56:36;;;;;;;;;;;13.80;99.90;;;;;;4921064;29;20399;-76
2021/10/05 10:59:26;;;;;;;;;;;13.80;99.90;;;;;;4927722;29;19938;-76
2021/10/05 11:02:14;;;;;;;;;;;13.90;99.90;;;;;;4922072;29;20038;-76
2021/10/05 11:05:04;;;;;;;;;;;13.90;99.90;;;;;;4930096;28;20248;-76
2021/10/05 11:07:55;;;;;;;;;;;13.90;99.90;;;;;;4916801;29;19949;-76
2021/10/05 11:10:45;;;;;;;;;;;14.00;99.90;;;;;;4937340;28;19927;-78
2021/10/05 11:13:34;;;;;;;;;;;14.00;99.90;;;;;;4932900;29;20260;-77
2021/10/05 11:16:24;;;;;;;;;;;14.00;99.90;;;;;;4927145;28;19935;-77
2021/10/05 11:19:14;;;;;;;;;;;13.90;99.90;;;;;;4932850;29;19931;-77
2021/10/05 11:22:05;;;;;;;;;;;14.00;99.90;;;;;;4927863;29;20368;-75
2021/10/05 11:24:54;;;;;;;;;;;14.00;99.90;;;;;;4929603;28;19931;-76
2021/10/05 11:27:43;;;;;;;;;;;14.00;99.90;;;;;;4935160;28;20291;-77
2021/10/05 11:30:33;;;;;;;;;;;14.10;99.90;;;;;;4927528;29;19935;-76
2021/10/05 11:33:25;;;;;;;;;;;14.10;99.90;;;;;;4931588;29;19934;-76
2021/10/05 11:36:22;;;;;;;;;;;14.10;99.90;;;;;;4925616;29;19946;-77
2021/10/05 11:39:21;;;;;;;;;;;14.10;99.90;;;;;;4927183;29;19930;-76
2021/10/05 11:42:12;;;;;;;;;;;14.20;99.90;;;;;;4925758;29;19931;-76
2021/10/05 11:45:09;;;;;;;;;;;14.20;99.90;;;;;;4926354;28;19927;-77
2021/10/05 11:47:59;;;;;;;;;;;14.30;99.90;;;;;;4928831;28;19943;-76
2021/10/05 11:50:48;;;;;;;;;;;14.40;99.90;;;;;;4920854;29;19928;-77
2021/10/05 11:53:39;;;;;;;;;;;14.30;99.90;;;;;;4925970;29;19933;-77
2021/10/05 11:56:28;;;;;;;;;;;14.30;99.90;;;;;;4941405;29;19930;-77
2021/10/05 11:59:21;;;;;;;;;;;14.30;99.90;;;;;;4923952;29;20050;-76
2021/10/05 12:02:11;;;;;;;;;;;14.30;99.90;;;;;;4919631;29;19989;-77
2021/10/05 12:05:01;;;;;;;;;;;14.30;99.90;;;;;;4941208;29;20391;-78
2021/10/05 12:28:56;;;;;;;;;;;14.40;99.90;;;;;;4945652;29;19935;-75
2021/10/05 12:31:52;;;;;;;;;;;14.40;99.90;;;;;;4947234;28;19930;-77
2021/10/05 12:34:44;;;;;;;;;;;14.40;99.90;;;;;;4933530;29;19926;-78
2021/10/05 12:37:34;;;;;;;;;;;14.40;99.90;;;;;;4952235;23;20022;-79
2021/10/05 12:40:40;;;;;;;;;;;14.40;99.90;;;;;;4931388;29;20315;-79
2021/10/05 12:43:42;;;;;;;;;;;14.40;99.90;;;;;;4925013;29;20393;-79
2021/10/05 12:46:34;;;;;;;;;;;14.50;99.90;;;;;;4940607;23;19934;-73
2021/10/05 12:49:23;;;;;;;;;;;14.50;99.90;;;;;;4936493;28;19927;-76
2021/10/05 12:52:12;;;;;;;;;;;14.50;99.90;;;;;;4940442;29;19927;-77
2021/10/05 12:55:00;;;;;;;;;;;14.60;99.90;;;;;;4936749;29;19927;-79
2021/10/05 12:57:49;;;;;;;;;;;14.60;99.90;;;;;;4934818;29;19915;-77
2021/10/05 13:00:37;;;;;;;;;;;14.70;99.90;;;;;;4920015;28;19927;-77
2021/10/05 13:03:28;;;;;;;;;;;14.70;99.90;;;;;;4932708;29;19928;-77
2021/10/05 13:06:18;;;;;;;;;;;14.70;99.90;;;;;;4935606;28;19927;-76
2021/10/05 13:09:07;;;;;;;;;;;14.80;99.90;;;;;;4922037;29;19935;-75
2021/10/05 13:11:56;;;;;;;;;;;14.80;99.90;;;;;;4934760;29;19927;-75
2021/10/05 13:14:45;;;;;;;;;;;14.80;99.90;;;;;;4920696;29;20021;-75
2021/10/05 13:17:33;;;;;;;;;;;14.80;99.90;;;;;;4931235;28;20408;-76
2021/10/05 13:20:23;;;;;;;;;;;14.80;99.90;;;;;;4930490;29;19934;-77
2021/10/05 13:23:12;;;;;;;;;;;14.80;99.90;;;;;;4932509;28;19927;-77
2021/10/05 13:26:02;;;;;;;;;;;14.80;99.90;;;;;;4926786;29;19931;-75
2021/10/05 13:29:17;;;;;;;;;;;14.80;99.90;;;;;;4937057;28;20263;-76
2021/10/05 13:32:08;;;;;;;;;;;14.80;99.90;;;;;;4935763;29;19931;-76
2021/10/05 13:34:57;;;;;;;;;;;14.80;99.90;;;;;;4938579;29;19938;-77
2021/10/05 13:37:48;;;;;;;;;;;14.80;99.90;;;;;;4938661;29;19937;-75
2021/10/05 13:40:43;;;;;;;;;;;14.80;99.90;;;;;;4940778;28;20352;-76
2021/10/05 13:43:32;;;;;;;;;;;14.80;99.90;;;;;;4937947;29;19935;-77
2021/10/05 13:46:23;;;;;;;;;;;14.80;99.90;;;;;;4916309;29;19931;-77
2021/10/05 13:49:12;;;;;;;;;;;14.80;99.90;;;;;;4940682;29;19931;-76
2021/10/05 13:52:00;;;;;;;;;;;14.80;99.90;;;;;;4942586;28;19914;-78
2021/10/05 13:54:53;;;;;;;;;;;14.80;99.90;;;;;;4935035;29;19930;-78
2021/10/05 14:31:45;;;;;;;;;;;15.00;99.90;;;;;;4931427;28;19978;-75
2021/10/05 14:34:35;;;;;;;;;;;15.00;99.90;;;;;;4941527;28;20021;-77
2021/10/05 14:37:27;;;;;;;;;;;15.00;99.90;;;;;;4943082;28;19941;-76
2021/10/05 14:40:16;;;;;;;;;;;15.00;99.90;;;;;;4935362;28;20082;-76
2021/10/05 14:43:05;;;;;;;;;;;15.00;99.90;;;;;;4942252;28;19931;-77
2021/10/05 14:45:54;;;;;;;;;;;15.00;99.90;;;;;;4934926;28;20376;-76
2021/10/05 14:48:45;;;;;;;;;;;15.00;99.90;;;;;;4942956;28;19974;-76
2021/10/05 14:51:33;;;;;;;;;;;15.00;99.90;;;;;;4939932;29;19938;-76
2021/10/05 14:54:22;;;;;;;;;;;15.00;99.90;;;;;;4920601;29;19931;-76
2021/10/05 14:57:11;;;;;;;;;;;15.00;99.90;;;;;;4938296;29;20280;-75
2021/10/05 15:00:00;;;;;;;;;;;15.00;99.90;;;;;;4926221;29;19974;-77
2021/10/05 15:02:50;;;;;;;;;;;15.00;99.90;;;;;;4925206;29;20037;-76
2021/10/05 15:05:40;;;;;;;;;;;15.00;99.90;;;;;;4946627;28;20025;-75
2021/10/05 15:08:28;;;;;;;;;;;15.00;99.90;;;;;;4950537;29;19937;-79
2021/10/05 15:11:26;;;;;;;;;;;15.00;99.90;;;;;;4947493;28;19927;-76
2021/10/05 15:14:16;;;;;;;;;;;15.00;99.90;;;;;;4936055;29;19927;-77
2021/10/05 15:17:13;;;;;;;;;;;15.00;99.90;;;;;;4941513;28;19927;-78
2021/10/05 15:20:12;;;;;;;;;;;15.00;99.90;;;;;;4965255;23;19927;-79
2021/10/05 15:23:03;;;;;;;;;;;15.00;99.90;;;;;;4934009;28;20413;-80
2021/10/05 15:29:16;;;;;;;;;;;15.00;99.90;;;;;;4944246;23;20172;-77
2021/10/05 15:32:12;;;;;;;;;;;15.00;99.90;;;;;;4926400;28;19916;-78
2021/10/05 15:35:05;;;;;;;;;;;15.00;99.90;;;;;;4943749;23;19970;-80
2021/10/05 15:38:20;;;;;;;;;;;15.00;99.90;;;;;;4925869;29;19938;-91
2021/10/05 15:41:11;;;;;;;;;;;15.00;99.90;;;;;;4920950;29;20009;-79
2021/10/05 15:44:17;;;;;;;;;;;15.00;99.90;;;;;;5039924;23;20018;-76
2021/10/05 15:50:09;;;;;;;;;;;15.00;99.90;;;;;;5140253;23;19942;-78
2021/10/05 15:53:03;;;;;;;;;;;15.00;99.90;;;;;;4952373;28;19927;-77
2021/10/05 15:55:56;;;;;;;;;;;15.00;99.90;;;;;;4936187;28;20021;-77
2021/10/05 15:58:45;;;;;;;;;;;15.00;99.90;;;;;;5088500;23;20331;-77
2021/10/05 16:01:47;;;;;;;;;;;15.00;99.90;;;;;;4956315;23;19926;-78
2021/10/05 16:04:39;;;;;;;;;;;15.00;99.90;;;;;;4955656;29;20370;-78
2021/10/05 16:07:31;;;;;;;;;;;14.90;99.90;;;;;;4955841;29;19948;-77
2021/10/05 16:10:19;;;;;;;;;;;14.90;99.90;;;;;;4945008;29;19926;-71
2021/10/05 16:13:09;;;;;;;;;;;14.90;99.90;;;;;;4941380;29;20037;-77
2021/10/05 16:15:58;;;;;;;;;;;14.90;99.90;;;;;;4940765;29;19955;-70
2021/10/05 16:18:47;;;;;;;;;;;14.90;99.90;;;;;;4940483;29;19927;-73
2021/10/05 16:21:36;;;;;;;;;;;14.90;99.90;;;;;;4942055;29;19942;-74
2021/10/05 16:24:24;;;;;;;;;;;14.90;99.90;;;;;;4945785;29;19938;-76
2021/10/05 16:27:14;;;;;;;;;;;15.00;99.90;;;;;;4943062;28;20018;-74
2021/10/05 16:30:07;;;;;;;;;;;14.90;99.90;;;;;;4945210;29;19927;-77
2021/10/05 16:32:56;;;;;;;;;;;14.90;99.90;;;;;;4947711;29;19927;-77
2021/10/05 16:35:45;;;;;;;;;;;14.90;99.90;;;;;;4932371;29;20362;-75
2021/10/05 16:38:34;;;;;;;;;;;14.90;99.90;;;;;;4929322;29;19990;-78
2021/10/05 16:41:23;;;;;;;;;;;14.90;99.90;;;;;;4941648;29;19927;-76
2021/10/05 16:44:12;;;;;;;;;;;14.90;99.90;;;;;;4943656;29;19938;-77
2021/10/05 16:47:04;;;;;;;;;;;14.80;99.90;;;;;;4923525;29;19998;-76
2021/10/05 16:49:54;;;;;;;;;;;14.80;99.90;;;;;;4929292;29;19927;-77
2021/10/05 16:52:42;;;;;;;;;;;14.80;99.90;;;;;;4928940;29;19927;-77
2021/10/05 16:55:31;;;;;;;;;;;14.80;99.90;;;;;;4929619;29;20019;-77
2021/10/05 16:58:21;;;;;;;;;;;14.80;99.90;;;;;;4937324;29;20003;-76
2021/10/05 17:01:09;;;;;;;;;;;14.80;99.90;;;;;;4934416;29;19946;-76
2021/10/05 17:04:00;;;;;;;;;;;14.80;99.90;;;;;;4927415;28;19937;-75
2021/10/05 17:06:49;;;;;;;;;;;14.80;99.90;;;;;;4942929;29;20488;-75
2021/10/05 17:09:39;;;;;;;;;;;14.70;99.90;;;;;;4942655;29;19931;-74
2021/10/05 17:12:28;;;;;;;;;;;14.70;99.90;;;;;;4934485;29;19931;-74
2021/10/05 17:15:20;;;;;;;;;;;14.70;99.90;;;;;;4930099;29;19927;-72
2021/10/05 17:18:11;;;;;;;;;;;14.70;99.90;;;;;;4933145;29;19931;-74
2021/10/05 17:21:01;;;;;;;;;;;14.70;99.90;;;;;;4939417;29;19931;-75
2021/10/05 17:23:50;;;;;;;;;;;14.60;99.90;;;;;;4938042;29;20039;-74
2021/10/05 17:26:43;;;;;;;;;;;14.60;99.90;;;;;;4922543;29;20359;-72
2021/10/05 17:29:32;;;;;;;;;;;14.60;99.90;;;;;;4933375;29;19926;-73
2021/10/05 17:32:21;;;;;;;;;;;14.60;99.90;;;;;;4933379;28;19927;-73
2021/10/05 17:35:10;;;;;;;;;;;14.60;99.90;;;;;;4938726;29;20469;-73
2021/10/05 17:38:01;;;;;;;;;;;14.50;99.90;;;;;;4928468;29;20026;-73
2021/10/05 17:40:50;;;;;;;;;;;14.50;99.90;;;;;;4930315;29;20074;-73
2021/10/05 17:43:39;;;;;;;;;;;14.50;99.90;;;;;;4930653;29;20021;-73
2021/10/05 17:46:28;;;;;;;;;;;14.50;99.90;;;;;;4926541;29;20112;-74
2021/10/05 17:49:17;;;;;;;;;;;14.50;99.90;;;;;;4934498;29;19935;-73
2021/10/05 17:52:06;;;;;;;;;;;14.40;99.90;;;;;;4938130;29;20397;-74
2021/10/05 17:54:57;;;;;;;;;;;14.40;99.90;;;;;;4933322;29;19926;-74
2021/10/05 17:57:47;;;;;;;;;;;14.40;99.90;;;;;;4934309;29;19934;-74
2021/10/05 18:00:36;;;;;;;;;;;14.40;99.90;;;;;;4930654;29;19935;-74
2021/10/05 18:03:25;;;;;;;;;;;14.40;99.90;;;;;;4933544;29;20303;-72
2021/10/05 18:06:14;;;;;;;;;;;14.40;99.90;;;;;;4935136;29;19959;-74
2021/10/05 18:09:06;;;;;;;;;;;14.40;99.90;;;;;;4932500;28;19976;-73
2021/10/05 18:11:56;;;;;;;;;;;14.30;99.90;;;;;;4932464;29;20406;-73
2021/10/05 18:14:45;;;;;;;;;;;14.30;99.90;;;;;;4933113;28;19927;-74
2021/10/05 18:18:00;;;;;;;;;;;14.30;99.90;;;;;;4933006;29;19978;-76
2021/10/05 18:20:49;;;;;;;;;;;14.30;99.90;;;;;;4936692;28;19927;-77
2021/10/05 18:23:39;;;;;;;;;;;14.30;99.90;;;;;;4933902;29;19933;-76
2021/10/05 18:26:32;;;;;;;;;;;14.30;99.90;;;;;;4936874;29;19937;-76
2021/10/05 18:29:23;;;;;;;;;;;14.30;99.90;;;;;;4940403;28;19935;-77
2021/10/05 18:32:12;;;;;;;;;;;14.30;99.90;;;;;;4929457;29;19938;-78
2021/10/05 18:35:01;;;;;;;;;;;14.30;99.90;;;;;;4933464;29;19942;-76
2021/10/05 18:37:49;;;;;;;;;;;14.30;99.90;;;;;;4938933;28;19927;-76
2021/10/05 18:40:40;;;;;;;;;;;14.30;99.90;;;;;;4935262;29;19974;-76
2021/10/05 18:43:34;;;;;;;;;;;14.30;99.90;;;;;;4934617;28;19927;-76
2021/10/05 18:46:24;;;;;;;;;;;14.20;99.90;;;;;;4929759;28;19934;-77
2021/10/05 18:49:13;;;;;;;;;;;14.20;99.90;;;;;;4932975;28;19982;-78
2021/10/05 18:52:01;;;;;;;;;;;14.20;99.90;;;;;;4936112;28;19927;-77
2021/10/05 18:54:50;;;;;;;;;;;14.20;99.90;;;;;;4935937;29;20478;-78
2021/10/05 18:57:40;;;;;;;;;;;14.20;99.90;;;;;;4936624;28;19935;-78
2021/10/05 19:00:28;;;;;;;;;;;14.20;99.90;;;;;;4920741;29;19930;-77
2021/10/05 19:03:19;;;;;;;;;;;14.20;99.90;;;;;;4936396;29;20268;-77
2021/10/05 19:06:11;;;;;;;;;;;14.10;99.90;;;;;;4931624;29;19931;-76
2021/10/05 19:08:59;;;;;;;;;;;14.10;99.90;;;;;;4937496;29;19931;-77
2021/10/05 19:11:50;;;;;;;;;;;14.10;99.90;;;;;;4930193;29;19927;-77
2021/10/05 19:14:39;;;;;;;;;;;14.10;99.90;;;;;;4938345;29;19937;-77
2021/10/05 19:17:29;;;;;;;;;;;14.10;99.90;;;;;;4932233;29;20295;-77
2021/10/05 19:20:23;;;;;;;;;;;14.20;99.90;;;;;;4919574;29;19939;-76
2021/10/05 19:23:11;;;;;;;;;;;14.10;99.90;;;;;;4931815;29;19931;-77
2021/10/05 19:26:02;;;;;;;;;;;14.10;99.90;;;;;;4931102;29;19974;-77
2021/10/05 19:28:55;;;;;;;;;;;14.10;99.90;;;;;;4935679;28;20029;-77
2021/10/05 19:32:09;;;;;;;;;;;14.10;99.90;;;;;;4925274;28;19931;-76
2021/10/05 19:34:58;;;;;;;;;;;14.10;99.90;;;;;;4930148;29;19926;-77
2021/10/05 19:37:48;;;;;;;;;;;14.00;99.90;;;;;;4932289;29;19926;-77
2021/10/05 19:40:38;;;;;;;;;;;14.10;99.90;;;;;;4930426;29;19986;-77
2021/10/05 19:43:27;;;;;;;;;;;14.10;99.90;;;;;;4931938;29;20299;-77
2021/10/05 19:46:16;;;;;;;;;;;14.10;99.90;;;;;;4930292;29;20455;-77
2021/10/05 19:49:06;;;;;;;;;;;14.10;99.90;;;;;;4932445;29;19931;-76
2021/10/05 19:51:55;;;;;;;;;;;14.10;99.90;;;;;;4935983;29;19934;-77
2021/10/05 19:54:45;;;;;;;;;;;14.00;99.90;;;;;;4936774;29;19943;-78
2021/10/05 19:57:34;;;;;;;;;;;14.00;99.90;;;;;;4941100;28;20410;-78
2021/10/05 20:00:26;;;;;;;;;;;14.00;99.90;;;;;;4921809;29;20373;-76
2021/10/05 20:03:16;;;;;;;;;;;14.10;99.90;;;;;;4934972;29;19927;-77
2021/10/05 20:06:07;;;;;;;;;;;14.00;99.90;;;;;;4933054;29;19927;-76
2021/10/05 20:08:56;;;;;;;;;;;14.00;99.90;;;;;;4940095;28;20009;-76
2021/10/05 20:11:46;;;;;;;;;;;14.00;99.90;;;;;;4929969;29;20018;-76
2021/10/05 20:14:38;;;;;;;;;;;14.00;99.90;;;;;;4930929;29;20343;-77
2021/10/05 20:17:27;;;;;;;;;;;14.00;99.90;;;;;;4929149;29;19934;-76
2021/10/05 20:20:19;;;;;;;;;;;14.00;99.90;;;;;;4930365;29;20372;-75
2021/10/05 20:23:08;;;;;;;;;;;14.00;99.90;;;;;;4933930;29;20245;-75
2021/10/05 20:25:56;;;;;;;;;;;14.00;99.90;;;;;;4926876;29;19935;-75
2021/10/05 20:28:47;;;;;;;;;;;14.00;99.90;;;;;;4926190;28;19927;-74
2021/10/05 20:31:36;;;;;;;;;;;14.00;99.90;;;;;;4927823;28;19933;-75
2021/10/05 20:34:25;;;;;;;;;;;14.00;99.90;;;;;;4930479;29;20300;-75
2021/10/05 20:37:13;;;;;;;;;;;14.00;99.90;;;;;;4920185;29;19933;-74
2021/10/05 20:40:05;;;;;;;;;;;14.00;99.90;;;;;;4913258;29;19934;-75
2021/10/05 20:42:54;;;;;;;;;;;14.00;99.90;;;;;;4927532;29;19931;-74
2021/10/05 20:45:45;;;;;;;;;;;14.00;99.90;;;;;;4913018;29;19934;-75
2021/10/05 20:48:34;;;;;;;;;;;14.00;99.90;;;;;;4923378;29;20419;-75
2021/10/05 20:51:24;;;;;;;;;;;14.00;99.90;;;;;;4922209;29;20416;-74
2021/10/05 20:54:13;;;;;;;;;;;14.00;99.90;;;;;;4923448;29;19931;-75
2021/10/05 20:57:04;;;;;;;;;;;14.00;99.90;;;;;;4928494;29;19946;-75
2021/10/05 20:59:53;;;;;;;;;;;14.00;99.90;;;;;;4919654;29;19931;-75
2021/10/05 21:02:43;;;;;;;;;;;14.00;99.90;;;;;;4917456;29;20861;-75
2021/10/05 21:05:32;;;;;;;;;;;14.00;99.90;;;;;;4928723;29;19931;-74
2021/10/05 21:08:21;;;;;;;;;;;14.00;99.90;;;;;;4934178;29;19927;-74
2021/10/05 21:11:10;;;;;;;;;;;14.00;99.90;;;;;;4937898;29;19935;-75
2021/10/05 21:13:59;;;;;;;;;;;14.00;99.90;;;;;;4932250;29;19930;-75
2021/10/05 21:16:47;;;;;;;;;;;14.10;99.90;;;;;;4925265;29;19927;-74
2021/10/05 21:19:38;;;;;;;;;;;14.10;99.90;;;;;;4920129;29;19934;-74
2021/10/05 21:22:27;;;;;;;;;;;14.10;99.90;;;;;;4928132;29;19983;-73
2021/10/05 21:25:15;;;;;;;;;;;14.10;99.90;;;;;;4926219;29;19927;-75
2021/10/05 21:28:05;;;;;;;;;;;14.00;99.90;;;;;;4937109;29;19969;-75
2021/10/05 21:30:53;;;;;;;;;;;14.00;99.90;;;;;;4927704;29;20010;-75
2021/10/05 21:33:42;;;;;;;;;;;14.10;99.90;;;;;;4934399;29;19997;-75
2021/10/05 21:36:32;;;;;;;;;;;14.00;99.90;;;;;;4922434;29;20383;-76
2021/10/05 21:39:21;;;;;;;;;;;14.00;99.90;;;;;;4935592;29;20017;-76
2021/10/05 21:42:11;;;;;;;;;;;14.00;99.90;;;;;;4923487;29;19934;-75
2021/10/05 21:44:59;;;;;;;;;;;14.00;99.90;;;;;;4924876;29;20311;-75
2021/10/05 21:48:11;;;;;;;;;;;14.00;99.90;;;;;;4927216;28;19935;-75
2021/10/05 21:51:01;;;;;;;;;;;14.00;99.90;;;;;;4922636;29;19927;-74
2021/10/05 21:54:14;;;;;;;;;;;14.00;99.90;;;;;;4922827;29;20356;-75
2021/10/05 21:57:05;;;;;;;;;;;14.00;99.90;;;;;;4925281;29;19928;-74
2021/10/05 21:59:54;;;;;;;;;;;14.00;99.90;;;;;;4928021;28;20410;-74
2021/10/05 22:02:44;;;;;;;;;;;14.00;99.90;;;;;;4923742;29;20014;-74
2021/10/05 22:05:34;;;;;;;;;;;14.00;99.90;;;;;;4922623;29;20296;-74
2021/10/05 22:08:22;;;;;;;;;;;14.00;99.90;;;;;;4930680;29;20164;-74
2021/10/05 22:11:11;;;;;;;;;;;14.00;99.90;;;;;;4934867;29;19927;-74
2021/10/05 22:14:01;;;;;;;;;;;14.00;99.90;;;;;;4935143;28;19941;-73
2021/10/05 22:16:51;;;;;;;;;;;14.10;99.90;;;;;;4923875;29;19950;-76
2021/10/05 22:19:39;;;;;;;;;;;14.10;99.90;;;;;;4927942;29;20307;-74
2021/10/05 22:22:28;;;;;;;;;;;14.10;99.90;;;;;;4924478;29;19931;-74
2021/10/05 22:25:17;;;;;;;;;;;14.10;99.90;;;;;;4927591;29;19927;-75
2021/10/05 22:28:06;;;;;;;;;;;14.10;99.90;;;;;;4920606;29;19998;-74
2021/10/05 22:30:57;;;;;;;;;;;14.10;99.90;;;;;;4920214;29;20341;-75
2021/10/05 22:33:46;;;;;;;;;;;14.10;99.90;;;;;;4924604;29;19931;-75
2021/10/05 22:36:36;;;;;;;;;;;14.10;99.90;;;;;;4924367;29;19927;-75
2021/10/05 22:39:25;;;;;;;;;;;14.10;99.90;;;;;;4927289;29;19954;-75
2021/10/05 22:42:14;;;;;;;;;;;14.20;99.90;;;;;;4922112;29;19928;-75
2021/10/05 22:45:10;;;;;;;;;;;14.10;99.90;;;;;;4929893;29;19936;-75
2021/10/05 22:48:27;;;;;;;;;;;14.10;99.90;;;;;;4925584;28;19930;-74
2021/10/05 22:51:16;;;;;;;;;;;14.10;99.90;;;;;;4906821;29;19974;-74
2021/10/05 22:54:04;;;;;;;;;;;14.10;99.90;;;;;;4925874;29;19927;-75
2021/10/05 22:56:53;;;;;;;;;;;14.10;99.90;;;;;;4925934;29;19938;-75